createdAt,value
2022-11-22T00:00:32.959Z,99.99
2022-11-22T00:01:33.004Z,99.99
2022-11-22T00:02:33.023Z,99.99
2022-11-22T00:03:32.952Z,99.99
2022-11-22T00:04:32.930Z,99.99
2022-11-22T00:05:32.918Z,99.99
2022-11-22T00:06:32.890Z,99.99
2022-11-22T00:07:32.977Z,99.99
2022-11-22T00:08:32.878Z,99.99
2022-11-22T00:09:32.877Z,99.99
2022-11-22T00:10:32.844Z,99.99
2022-11-22T00:11:32.837Z,99.99
2022-11-22T00:12:34.279Z,99.99
2022-11-22T00:13:32.849Z,99.99
2022-11-22T00:14:32.819Z,99.99
2022-11-22T00:15:32.802Z,99.99
2022-11-22T00:16:32.767Z,99.99
2022-11-22T00:17:32.779Z,99.99
2022-11-22T00:18:32.767Z,99.99
2022-11-22T00:19:32.746Z,99.99
2022-11-22T00:20:32.751Z,99.99
2022-11-22T00:21:32.729Z,99.99
2022-11-22T00:22:32.701Z,99.99
2022-11-22T00:23:32.689Z,99.99
2022-11-22T00:24:32.668Z,99.99
2022-11-22T00:25:32.669Z,99.99
2022-11-22T00:26:32.658Z,99.99
2022-11-22T00:27:32.637Z,99.99
2022-11-22T00:28:32.626Z,99.99
2022-11-22T00:29:32.637Z,99.95
2022-11-22T00:30:32.597Z,99.95
2022-11-22T00:31:32.606Z,99.95
2022-11-22T00:32:32.569Z,99.84
2022-11-22T00:33:32.567Z,99.84
2022-11-22T00:34:32.549Z,99.84
2022-11-22T00:35:32.547Z,99.84
2022-11-22T00:36:32.527Z,99.73
2022-11-22T00:37:32.545Z,99.84
2022-11-22T00:38:32.491Z,99.84
2022-11-22T00:39:32.797Z,99.73
2022-11-22T00:40:32.469Z,99.73
2022-11-22T00:41:32.466Z,99.84
2022-11-22T00:42:32.446Z,99.84
2022-11-22T00:43:32.458Z,99.84
2022-11-22T00:44:32.418Z,99.84
2022-11-22T00:45:32.418Z,99.73
2022-11-22T00:46:32.397Z,99.73
2022-11-22T00:47:32.407Z,99.73
2022-11-22T00:48:32.387Z,99.73
2022-11-22T00:49:32.786Z,99.84
2022-11-22T00:50:32.344Z,99.84
2022-11-22T00:51:32.344Z,99.73
2022-11-22T00:52:32.337Z,99.84
2022-11-22T00:53:32.324Z,99.84
2022-11-22T00:54:32.293Z,99.84
2022-11-22T00:55:32.294Z,99.84
2022-11-22T00:56:32.269Z,99.84
2022-11-22T00:57:32.284Z,99.73
2022-11-22T00:58:32.247Z,99.73
2022-11-22T00:59:32.438Z,99.73
2022-11-22T01:00:40.962Z,99.73
2022-11-22T01:01:32.258Z,99.73
2022-11-22T01:02:32.205Z,99.63
2022-11-22T01:03:32.196Z,99.63
2022-11-22T01:04:32.172Z,99.63
2022-11-22T01:05:32.166Z,99.63
2022-11-22T01:06:32.142Z,99.63
2022-11-22T01:07:32.241Z,99.63
2022-11-22T01:08:32.140Z,99.58
2022-11-22T01:09:32.337Z,99.52
2022-11-22T01:10:32.096Z,99.52
2022-11-22T01:11:32.115Z,99.52
2022-11-22T01:12:32.091Z,99.52
2022-11-22T01:13:32.085Z,99.63
2022-11-22T01:14:32.064Z,99.58
2022-11-22T01:15:32.054Z,99.58
2022-11-22T01:16:32.040Z,99.58
2022-11-22T01:17:32.033Z,99.48
2022-11-22T01:18:32.003Z,99.48
2022-11-22T01:19:32.258Z,99.48
2022-11-22T01:20:31.976Z,99.37
2022-11-22T01:21:31.958Z,99.48
2022-11-22T01:22:31.932Z,99.37
2022-11-22T01:23:31.948Z,99.37
2022-11-22T01:24:31.909Z,99.27
2022-11-22T01:25:31.908Z,99.27
2022-11-22T01:26:31.882Z,99.27
2022-11-22T01:27:31.893Z,99.27
2022-11-22T01:28:39.971Z,99.27
2022-11-22T01:29:32.085Z,99.27
2022-11-22T01:30:31.899Z,99.27
2022-11-22T01:31:31.860Z,99.16
2022-11-22T01:32:31.832Z,99.16
2022-11-22T01:33:31.847Z,99.16
2022-11-22T01:34:31.803Z,99.05
2022-11-22T01:35:31.810Z,98.95
2022-11-22T01:36:31.774Z,99.05
2022-11-22T01:37:31.788Z,99.01
2022-11-22T01:38:31.824Z,98.95
2022-11-22T01:39:32.092Z,98.95
2022-11-22T01:40:31.747Z,98.95
2022-11-22T01:41:31.776Z,98.85
2022-11-22T01:42:31.730Z,98.95
2022-11-22T01:43:31.701Z,98.95
2022-11-22T01:44:31.722Z,98.95
2022-11-22T01:45:31.693Z,98.95
2022-11-22T01:46:31.658Z,98.95
2022-11-22T01:47:31.663Z,98.95
2022-11-22T01:48:31.633Z,98.95
2022-11-22T01:49:31.994Z,98.95
2022-11-22T01:50:31.654Z,98.95
2022-11-22T01:51:31.627Z,99.05
2022-11-22T01:52:31.597Z,99.05
2022-11-22T01:53:31.580Z,99.05
2022-11-22T01:54:31.567Z,99.05
2022-11-22T01:55:31.599Z,99.16
2022-11-22T01:56:31.576Z,99.27
2022-11-22T01:57:31.543Z,99.27
2022-11-22T01:58:31.529Z,99.27
2022-11-22T01:59:31.881Z,99.16
2022-11-22T02:00:31.479Z,99.16
2022-11-22T02:01:31.570Z,99.27
2022-11-22T02:02:31.457Z,99.27
2022-11-22T02:03:31.463Z,99.27
2022-11-22T02:04:31.444Z,99.21
2022-11-22T02:05:31.482Z,99.31
2022-11-22T02:06:31.426Z,99.41
2022-11-22T02:07:31.530Z,99.48
2022-11-22T02:08:31.383Z,99.41
2022-11-22T02:09:31.801Z,99.52
2022-11-22T02:10:31.364Z,99.52
2022-11-22T02:11:34.335Z,99.52
2022-11-22T02:12:31.353Z,99.63
2022-11-22T02:13:31.344Z,99.63
2022-11-22T02:14:31.310Z,99.63
2022-11-22T02:15:31.291Z,99.73
2022-11-22T02:16:31.301Z,99.73
2022-11-22T02:17:31.282Z,99.73
2022-11-22T02:18:31.263Z,99.73
2022-11-22T02:19:31.728Z,99.73
2022-11-22T02:20:31.233Z,99.73
2022-11-22T02:21:32.693Z,99.84
2022-11-22T02:22:31.246Z,99.73
2022-11-22T02:23:31.225Z,99.73
2022-11-22T02:24:31.183Z,99.73
2022-11-22T02:25:31.202Z,99.84
2022-11-22T02:26:31.164Z,99.84
2022-11-22T02:27:31.193Z,99.84
2022-11-22T02:28:31.145Z,99.84
2022-11-22T02:29:31.605Z,99.95
2022-11-22T02:30:31.104Z,99.99
2022-11-22T02:31:31.101Z,99.99
2022-11-22T02:32:31.100Z,99.99
2022-11-22T02:33:31.096Z,99.99
2022-11-22T02:34:31.061Z,99.99
2022-11-22T02:35:31.050Z,99.99
2022-11-22T02:36:31.045Z,99.99
2022-11-22T02:37:31.019Z,99.99
2022-11-22T02:38:31.024Z,99.99
2022-11-22T02:39:31.402Z,99.99
2022-11-22T02:40:30.984Z,99.99
2022-11-22T02:41:30.986Z,99.99
2022-11-22T02:42:30.963Z,99.90
2022-11-22T02:43:30.962Z,99.99
2022-11-22T02:44:30.967Z,99.90
2022-11-22T02:45:30.919Z,99.99
2022-11-22T02:46:30.957Z,99.90
2022-11-22T02:47:30.971Z,99.99
2022-11-22T02:48:30.902Z,99.99
2022-11-22T02:49:31.309Z,99.99
2022-11-22T02:50:30.886Z,99.90
2022-11-22T02:51:30.883Z,99.90
2022-11-22T02:52:32.320Z,99.90
2022-11-22T02:53:30.850Z,99.90
2022-11-22T02:54:30.826Z,99.90
2022-11-22T02:55:30.801Z,99.90
2022-11-22T02:56:30.797Z,99.90
2022-11-22T02:57:30.806Z,99.90
2022-11-22T02:58:30.760Z,99.95
2022-11-22T02:59:31.164Z,99.95
2022-11-22T03:00:30.751Z,99.99
2022-11-22T03:01:30.777Z,99.99
2022-11-22T03:02:30.731Z,99.99
2022-11-22T03:03:30.710Z,99.99
2022-11-22T03:04:30.701Z,99.99
2022-11-22T03:05:30.708Z,99.99
2022-11-22T03:06:30.689Z,99.99
2022-11-22T03:07:30.674Z,99.99
2022-11-22T03:08:30.660Z,99.99
2022-11-22T03:09:31.018Z,99.99
2022-11-22T03:10:30.619Z,99.99
2022-11-22T03:11:30.590Z,99.99
2022-11-22T03:12:30.608Z,99.99
2022-11-22T03:13:30.569Z,99.99
2022-11-22T03:14:30.568Z,99.99
2022-11-22T03:15:30.569Z,99.99
2022-11-22T03:16:30.537Z,99.99
2022-11-22T03:17:30.518Z,99.99
2022-11-22T03:18:30.529Z,99.99
2022-11-22T03:19:30.838Z,99.99
2022-11-22T03:20:30.510Z,99.99
2022-11-22T03:21:30.478Z,99.99
2022-11-22T03:22:30.471Z,99.99
2022-11-22T03:23:30.482Z,99.99
2022-11-22T03:24:30.456Z,99.99
2022-11-22T03:25:30.429Z,99.99
2022-11-22T03:26:30.438Z,99.90
2022-11-22T03:27:30.397Z,99.90
2022-11-22T03:28:30.408Z,99.90
2022-11-22T03:29:30.618Z,99.90
2022-11-22T03:30:30.379Z,99.90
2022-11-22T03:31:30.349Z,99.79
2022-11-22T03:32:30.349Z,99.90
2022-11-22T03:33:30.332Z,99.79
2022-11-22T03:34:30.330Z,99.79
2022-11-22T03:35:30.321Z,99.79
2022-11-22T03:36:30.301Z,99.79
2022-11-22T03:37:30.295Z,99.69
2022-11-22T03:38:30.277Z,99.69
2022-11-22T03:39:30.547Z,99.69
2022-11-22T03:40:30.261Z,99.69
2022-11-22T03:41:30.229Z,99.69
2022-11-22T03:42:30.229Z,99.69
2022-11-22T03:43:30.219Z,99.69
2022-11-22T03:44:30.216Z,99.79
2022-11-22T03:45:30.180Z,99.90
2022-11-22T03:46:30.185Z,99.90
2022-11-22T03:47:30.160Z,99.90
2022-11-22T03:48:30.159Z,99.90
2022-11-22T03:49:30.444Z,99.90
2022-11-22T03:50:30.118Z,99.90
2022-11-22T03:51:30.097Z,99.90
2022-11-22T03:52:30.100Z,99.99
2022-11-22T03:53:30.077Z,99.99
2022-11-22T03:54:30.075Z,99.99
2022-11-22T03:55:30.068Z,99.96
2022-11-22T03:56:30.045Z,99.96
2022-11-22T03:57:30.031Z,99.85
2022-11-22T03:58:30.036Z,99.85
2022-11-22T03:59:30.380Z,99.85
2022-11-22T04:00:31.459Z,99.85
2022-11-22T04:01:30.179Z,99.85
2022-11-22T04:02:29.988Z,99.85
2022-11-22T04:03:29.961Z,99.85
2022-11-22T04:04:29.971Z,99.85
2022-11-22T04:05:29.949Z,99.85
2022-11-22T04:06:29.940Z,99.85
2022-11-22T04:07:29.951Z,99.85
2022-11-22T04:08:29.898Z,99.85
2022-11-22T04:09:30.144Z,99.85
2022-11-22T04:10:29.876Z,99.96
2022-11-22T04:11:29.877Z,99.85
2022-11-22T04:12:29.845Z,99.96
2022-11-22T04:13:29.829Z,99.96
2022-11-22T04:14:29.853Z,99.96
2022-11-22T04:15:29.807Z,99.96
2022-11-22T04:16:29.816Z,99.91
2022-11-22T04:17:29.794Z,99.80
2022-11-22T04:18:29.808Z,99.80
2022-11-22T04:19:30.008Z,99.80
2022-11-22T04:20:29.768Z,99.80
2022-11-22T04:21:29.747Z,99.80
2022-11-22T04:22:29.746Z,99.80
2022-11-22T04:23:34.022Z,99.80
2022-11-22T04:24:29.697Z,99.91
2022-11-22T04:25:29.690Z,99.91
2022-11-22T04:26:29.683Z,99.91
2022-11-22T04:27:29.653Z,99.91
2022-11-22T04:29:02.037Z,99.99
2022-11-22T04:29:30.808Z,99.99
2022-11-22T04:30:29.630Z,99.99
2022-11-22T04:31:29.606Z,99.99
2022-11-22T04:32:29.630Z,99.99
2022-11-22T04:33:29.596Z,99.99
2022-11-22T04:34:29.578Z,99.99
2022-11-22T04:35:29.564Z,99.99
2022-11-22T04:36:29.553Z,99.99
2022-11-22T04:37:29.556Z,99.99
2022-11-22T04:38:29.526Z,99.99
2022-11-22T04:39:29.876Z,99.99
2022-11-22T04:40:29.521Z,99.99
2022-11-22T04:41:29.474Z,99.99
2022-11-22T04:42:29.492Z,99.99
2022-11-22T04:43:29.452Z,99.99
2022-11-22T04:44:29.454Z,99.99
2022-11-22T04:45:29.435Z,99.99
2022-11-22T04:46:29.475Z,99.99
2022-11-22T04:47:29.404Z,99.99
2022-11-22T04:48:29.405Z,99.99
2022-11-22T04:49:29.635Z,99.99
2022-11-22T04:50:29.374Z,99.99
2022-11-22T04:51:29.352Z,99.99
2022-11-22T04:52:29.394Z,99.99
2022-11-22T04:53:29.335Z,99.99
2022-11-22T04:54:29.325Z,99.99
2022-11-22T04:55:29.305Z,99.99
2022-11-22T04:56:29.319Z,99.99
2022-11-22T04:57:29.343Z,99.99
2022-11-22T04:58:29.301Z,99.99
2022-11-22T04:59:29.446Z,99.99
2022-11-22T05:00:29.244Z,99.99
2022-11-22T05:01:29.323Z,99.99
2022-11-22T05:02:29.232Z,99.99
2022-11-22T05:03:29.210Z,99.99
2022-11-22T05:04:29.222Z,99.99
2022-11-22T05:05:29.192Z,99.99
2022-11-22T05:06:29.182Z,99.99
2022-11-22T05:07:29.241Z,99.99
2022-11-22T05:08:29.153Z,99.99
2022-11-22T05:09:29.386Z,99.99
2022-11-22T05:10:29.133Z,99.99
2022-11-22T05:11:29.138Z,99.99
2022-11-22T05:12:29.117Z,99.99
2022-11-22T05:13:29.095Z,99.99
2022-11-22T05:14:29.114Z,99.99
2022-11-22T05:15:29.062Z,99.99
2022-11-22T05:16:29.064Z,99.99
2022-11-22T05:17:29.066Z,99.99
2022-11-22T05:18:29.032Z,99.99
2022-11-22T05:19:29.303Z,99.99
2022-11-22T05:20:29.008Z,99.99
2022-11-22T05:21:29.009Z,99.99
2022-11-22T05:22:28.997Z,99.99
2022-11-22T05:23:28.981Z,99.99
2022-11-22T05:24:28.977Z,99.99
2022-11-22T05:25:28.932Z,99.99
2022-11-22T05:26:28.931Z,99.99
2022-11-22T05:27:28.911Z,99.99
2022-11-22T05:28:28.933Z,99.99
2022-11-22T05:29:29.087Z,99.99
2022-11-22T05:30:28.892Z,99.99
2022-11-22T05:31:28.875Z,99.99
2022-11-22T05:32:28.887Z,99.99
2022-11-22T05:33:28.844Z,99.99
2022-11-22T05:34:28.840Z,99.99
2022-11-22T05:35:28.808Z,99.99
2022-11-22T05:36:28.820Z,99.99
2022-11-22T05:37:28.810Z,99.99
2022-11-22T05:38:28.784Z,99.99
2022-11-22T05:39:30.667Z,99.99
2022-11-22T05:40:28.769Z,99.99
2022-11-22T05:41:28.752Z,99.99
2022-11-22T05:42:28.741Z,99.99
2022-11-22T05:43:28.743Z,99.99
2022-11-22T05:44:28.773Z,99.99
2022-11-22T05:45:28.713Z,99.99
2022-11-22T05:46:28.733Z,99.99
2022-11-22T05:47:28.681Z,99.99
2022-11-22T05:48:28.690Z,99.99
2022-11-22T05:49:29.075Z,99.99
2022-11-22T05:50:28.652Z,99.99
2022-11-22T05:51:34.078Z,99.99
2022-11-22T05:52:29.630Z,99.99
2022-11-22T05:53:28.607Z,99.99
2022-11-22T05:54:28.628Z,99.99
2022-11-22T05:55:28.769Z,99.99
2022-11-22T05:56:28.562Z,99.99
2022-11-22T05:57:28.549Z,99.99
2022-11-22T05:58:28.549Z,99.99
2022-11-22T05:59:28.896Z,99.99
2022-11-22T06:00:28.535Z,99.99
2022-11-22T06:01:28.510Z,99.99
2022-11-22T06:02:28.524Z,99.99
2022-11-22T06:03:28.477Z,99.99
2022-11-22T06:04:28.508Z,99.99
2022-11-22T06:05:28.521Z,99.99
2022-11-22T06:06:28.450Z,99.99
2022-11-22T06:07:28.488Z,99.99
2022-11-22T06:08:28.421Z,99.99
2022-11-22T06:09:28.832Z,99.99
2022-11-22T06:10:28.408Z,99.99
2022-11-22T06:11:28.417Z,99.99
2022-11-22T06:12:28.370Z,99.99
2022-11-22T06:13:28.358Z,99.99
2022-11-22T06:14:28.375Z,99.99
2022-11-22T06:15:28.406Z,99.99
2022-11-22T06:16:28.514Z,99.99
2022-11-22T06:17:28.311Z,99.99
2022-11-22T06:18:28.314Z,99.99
2022-11-22T06:19:28.766Z,99.99
2022-11-22T06:20:28.268Z,99.99
2022-11-22T06:21:28.249Z,99.99
2022-11-22T06:22:28.250Z,99.99
2022-11-22T06:23:28.244Z,99.99
2022-11-22T06:24:28.221Z,99.99
2022-11-22T06:25:28.219Z,99.99
2022-11-22T06:26:28.230Z,99.99
2022-11-22T06:27:28.177Z,99.99
2022-11-22T06:28:28.179Z,99.99
2022-11-22T06:29:28.413Z,99.99
2022-11-22T06:30:28.163Z,99.99
2022-11-22T06:31:28.143Z,99.99
2022-11-22T06:32:28.119Z,99.99
2022-11-22T06:33:28.096Z,99.99
2022-11-22T06:34:28.093Z,99.99
2022-11-22T06:35:28.071Z,99.99
2022-11-22T06:36:28.067Z,99.99
2022-11-22T06:37:28.067Z,99.99
2022-11-22T06:38:28.048Z,99.99
2022-11-22T06:39:28.331Z,99.99
2022-11-22T06:40:28.019Z,99.99
2022-11-22T06:41:28.001Z,99.99
2022-11-22T06:42:27.999Z,99.99
2022-11-22T06:43:28.095Z,99.99
2022-11-22T06:44:27.969Z,99.99
2022-11-22T06:45:27.956Z,99.99
2022-11-22T06:46:27.947Z,99.99
2022-11-22T06:47:27.926Z,99.99
2022-11-22T06:48:27.915Z,99.99
2022-11-22T06:49:28.113Z,99.99
2022-11-22T06:50:27.898Z,99.99
2022-11-22T06:51:27.904Z,99.99
2022-11-22T06:52:27.865Z,99.99
2022-11-22T06:53:46.289Z,99.99
2022-11-22T06:54:28.859Z,99.99
2022-11-22T06:55:49.563Z,99.99
2022-11-22T06:56:28.828Z,99.99
2022-11-22T06:57:27.810Z,99.99
2022-11-22T06:58:27.785Z,99.99
2022-11-22T06:59:28.139Z,99.94
2022-11-22T07:00:27.817Z,99.94
2022-11-22T07:01:34.918Z,99.94
2022-11-22T07:02:27.729Z,99.94
2022-11-22T07:03:27.736Z,99.84
2022-11-22T07:04:27.695Z,99.73
2022-11-22T07:05:27.714Z,99.73
2022-11-22T07:06:27.685Z,99.73
2022-11-22T07:07:27.751Z,99.63
2022-11-22T07:08:27.686Z,99.73
2022-11-22T07:09:28.236Z,99.73
2022-11-22T07:10:27.645Z,99.73
2022-11-22T07:11:27.625Z,99.84
2022-11-22T07:12:27.609Z,99.73
2022-11-22T07:13:27.605Z,99.73
2022-11-22T07:14:27.585Z,99.84
2022-11-22T07:15:27.608Z,99.73
2022-11-22T07:16:27.573Z,99.73
2022-11-22T07:17:27.622Z,99.68
2022-11-22T07:18:27.525Z,99.68
2022-11-22T07:19:27.710Z,99.68
2022-11-22T07:20:27.513Z,99.68
2022-11-22T07:21:27.503Z,99.68
2022-11-22T07:22:27.476Z,99.68
2022-11-22T07:23:27.473Z,99.58
2022-11-22T07:24:27.457Z,99.58
2022-11-22T07:25:27.485Z,99.58
2022-11-22T07:26:27.436Z,99.58
2022-11-22T07:27:27.424Z,99.48
2022-11-22T07:28:27.412Z,99.37
2022-11-22T07:29:27.662Z,99.37
2022-11-22T07:30:27.416Z,99.37
2022-11-22T07:31:27.490Z,99.37
2022-11-22T07:32:27.358Z,99.37
2022-11-22T07:33:27.349Z,99.37
2022-11-22T07:34:27.328Z,99.37
2022-11-22T07:35:27.343Z,99.37
2022-11-22T07:36:27.303Z,99.37
2022-11-22T07:37:27.301Z,99.22
2022-11-22T07:38:27.272Z,99.22
2022-11-22T07:39:27.507Z,99.11
2022-11-22T07:40:27.256Z,99.11
2022-11-22T07:41:27.286Z,99.11
2022-11-22T07:42:27.242Z,99.01
2022-11-22T07:43:27.231Z,99.01
2022-11-22T07:44:27.211Z,98.91
2022-11-22T07:45:27.214Z,98.91
2022-11-22T07:46:27.184Z,98.91
2022-11-22T07:47:27.183Z,98.91
2022-11-22T07:48:27.151Z,98.69
2022-11-22T07:49:27.315Z,98.69
2022-11-22T07:50:27.168Z,98.59
2022-11-22T07:51:27.122Z,98.59
2022-11-22T07:52:28.573Z,98.49
2022-11-22T07:53:27.121Z,98.49
2022-11-22T07:54:27.113Z,98.44
2022-11-22T07:55:27.140Z,98.44
2022-11-22T07:56:27.052Z,98.44
2022-11-22T07:57:27.054Z,98.44
2022-11-22T07:58:27.050Z,98.44
2022-11-22T07:59:27.402Z,98.44
2022-11-22T08:00:26.991Z,98.44
2022-11-22T08:01:27.147Z,98.34
2022-11-22T08:02:26.970Z,98.34
2022-11-22T08:03:29.247Z,98.34
2022-11-22T08:04:26.972Z,98.34
2022-11-22T08:05:26.961Z,98.34
2022-11-22T08:06:27.019Z,98.34
2022-11-22T08:07:26.951Z,98.24
2022-11-22T08:08:26.921Z,98.24
2022-11-22T08:09:26.912Z,98.24
2022-11-22T08:10:26.872Z,98.24
2022-11-22T08:11:26.882Z,98.34
2022-11-22T08:12:26.841Z,98.34
2022-11-22T08:13:26.860Z,98.34
2022-11-22T08:14:26.822Z,98.34
2022-11-22T08:15:26.851Z,98.34
2022-11-22T08:16:26.803Z,98.34
2022-11-22T08:17:26.798Z,98.34
2022-11-22T08:18:26.780Z,98.34
2022-11-22T08:19:26.814Z,98.34
2022-11-22T08:20:26.760Z,98.29
2022-11-22T08:21:26.820Z,98.29
2022-11-22T08:22:26.750Z,98.29
2022-11-22T08:23:26.727Z,98.29
2022-11-22T08:24:26.720Z,98.19
2022-11-22T08:25:26.700Z,98.19
2022-11-22T08:26:26.672Z,98.19
2022-11-22T08:27:26.671Z,98.08
2022-11-22T08:28:26.650Z,98.08
2022-11-22T08:29:26.650Z,98.08
2022-11-22T08:30:26.637Z,98.19
2022-11-22T08:31:26.620Z,98.19
2022-11-22T08:32:26.590Z,98.19
2022-11-22T08:33:26.599Z,98.19
2022-11-22T08:34:26.576Z,98.19
2022-11-22T08:35:26.571Z,98.29
2022-11-22T08:36:26.570Z,98.19
2022-11-22T08:37:26.552Z,98.19
2022-11-22T08:38:26.529Z,98.19
2022-11-22T08:39:26.655Z,98.19
2022-11-22T08:40:26.499Z,98.14
2022-11-22T08:41:26.499Z,98.14
2022-11-22T08:42:26.496Z,98.14
2022-11-22T08:43:26.479Z,98.14
2022-11-22T08:44:26.449Z,98.14
2022-11-22T08:45:26.449Z,98.14
2022-11-22T08:46:26.421Z,98.14
2022-11-22T08:47:26.447Z,98.14
2022-11-22T08:48:26.421Z,98.14
2022-11-22T08:49:26.386Z,98.14
2022-11-22T08:50:26.369Z,98.25
2022-11-22T08:51:26.375Z,98.25
2022-11-22T08:52:26.357Z,98.25
2022-11-22T08:53:26.353Z,98.14
2022-11-22T08:54:26.339Z,98.25
2022-11-22T08:55:26.329Z,98.25
2022-11-22T08:56:26.949Z,98.35
2022-11-22T08:57:26.318Z,98.46
2022-11-22T08:58:26.288Z,98.56
2022-11-22T08:59:26.368Z,98.46
2022-11-22T09:00:31.691Z,98.46
2022-11-22T09:01:27.295Z,98.56
2022-11-22T09:02:26.217Z,98.56
2022-11-22T09:03:26.227Z,98.67
2022-11-22T09:04:26.198Z,98.77
2022-11-22T09:05:26.262Z,98.77
2022-11-22T09:08:28.943Z,98.88
2022-11-22T09:09:41.511Z,98.77
2022-11-22T09:10:27.117Z,98.77
2022-11-22T09:11:26.119Z,98.77
2022-11-22T09:12:26.095Z,98.77
2022-11-22T09:13:26.096Z,98.88
2022-11-22T09:14:26.087Z,98.98
2022-11-22T09:15:26.067Z,98.98
2022-11-22T09:16:26.053Z,98.98
2022-11-22T09:17:27.008Z,98.93
2022-11-22T09:18:26.048Z,98.93
2022-11-22T09:19:26.028Z,98.83
2022-11-22T09:20:26.082Z,98.83
2022-11-22T09:21:26.008Z,98.93
2022-11-22T09:22:28.560Z,98.93
2022-11-22T09:23:26.027Z,98.83
2022-11-22T09:24:25.960Z,98.83
2022-11-22T09:25:25.947Z,98.83
2022-11-22T09:26:25.925Z,98.83
2022-11-22T09:27:25.915Z,98.83
2022-11-22T09:28:25.905Z,98.72
2022-11-22T09:29:25.886Z,98.72
2022-11-22T09:30:25.875Z,98.72
2022-11-22T09:31:25.867Z,98.83
2022-11-22T09:32:30.691Z,98.83
2022-11-22T09:33:26.855Z,98.83
2022-11-22T09:34:25.836Z,98.83
2022-11-22T09:35:25.830Z,98.72
2022-11-22T09:36:25.807Z,98.72
2022-11-22T09:37:25.798Z,98.68
2022-11-22T09:38:25.777Z,98.68
2022-11-22T09:39:25.776Z,98.68
2022-11-22T09:40:25.755Z,98.68
2022-11-22T09:41:25.744Z,98.68
2022-11-22T09:42:25.725Z,98.58
2022-11-22T09:43:25.724Z,98.58
2022-11-22T09:44:25.685Z,98.47
2022-11-22T09:45:25.716Z,98.47
2022-11-22T09:46:25.674Z,98.37
2022-11-22T09:47:25.667Z,98.26
2022-11-22T09:48:25.646Z,98.16
2022-11-22T09:49:25.646Z,98.11
2022-11-22T09:50:25.637Z,98.01
2022-11-22T09:51:25.633Z,97.91
2022-11-22T09:52:25.605Z,97.91
2022-11-22T09:53:25.609Z,97.91
2022-11-22T09:54:25.576Z,97.91
2022-11-22T09:55:25.575Z,97.80
2022-11-22T09:56:25.551Z,97.70
2022-11-22T09:57:25.595Z,97.80
2022-11-22T09:58:25.530Z,97.70
2022-11-22T09:59:25.524Z,97.70
2022-11-22T10:00:25.498Z,97.80
2022-11-22T10:01:25.548Z,97.80
2022-11-22T10:02:25.472Z,97.80
2022-11-22T10:03:25.484Z,97.70
2022-11-22T10:04:25.455Z,97.80
2022-11-22T10:05:25.447Z,97.70
2022-11-22T10:06:25.426Z,97.70
2022-11-22T10:07:25.490Z,97.59
2022-11-22T10:08:25.402Z,97.59
2022-11-22T10:09:25.383Z,97.59
2022-11-22T10:10:25.364Z,97.55
2022-11-22T10:11:25.373Z,97.55
2022-11-22T10:12:25.365Z,97.55
2022-11-22T10:13:25.345Z,97.55
2022-11-22T10:14:25.329Z,97.44
2022-11-22T10:15:25.316Z,97.34
2022-11-22T10:16:25.304Z,97.24
2022-11-22T10:17:25.305Z,97.24
2022-11-22T10:18:25.296Z,97.34
2022-11-22T10:19:25.277Z,97.34
2022-11-22T10:20:25.244Z,97.44
2022-11-22T10:21:25.272Z,97.49
2022-11-22T10:22:25.215Z,97.59
2022-11-22T10:23:25.217Z,97.55
2022-11-22T10:24:25.193Z,97.59
2022-11-22T10:25:25.192Z,97.70
2022-11-22T10:26:25.170Z,97.70
2022-11-22T10:27:25.185Z,97.80
2022-11-22T10:28:25.155Z,97.80
2022-11-22T10:29:25.169Z,97.80
2022-11-22T10:30:25.126Z,97.86
2022-11-22T10:31:25.124Z,97.97
2022-11-22T10:32:25.098Z,97.97
2022-11-22T10:33:25.171Z,97.97
2022-11-22T10:34:25.077Z,97.97
2022-11-22T10:35:25.083Z,97.97
2022-11-22T10:36:25.065Z,97.97
2022-11-22T10:37:25.037Z,97.86
2022-11-22T10:38:25.013Z,97.86
2022-11-22T10:39:27.864Z,97.75
2022-11-22T10:40:26.345Z,97.75
2022-11-22T10:41:24.983Z,97.75
2022-11-22T10:42:24.965Z,97.65
2022-11-22T10:43:24.961Z,97.65
2022-11-22T10:44:24.944Z,97.65
2022-11-22T10:45:24.955Z,97.55
2022-11-22T10:46:24.914Z,97.65
2022-11-22T10:47:24.918Z,97.61
2022-11-22T10:48:24.894Z,97.50
2022-11-22T10:49:24.894Z,97.50
2022-11-22T10:50:24.865Z,97.40
2022-11-22T10:51:24.893Z,97.40
2022-11-22T10:52:24.832Z,97.30
2022-11-22T10:53:24.840Z,97.19
2022-11-22T10:54:24.821Z,97.30
2022-11-22T10:55:24.812Z,97.30
2022-11-22T10:56:24.791Z,97.30
2022-11-22T10:57:24.783Z,97.30
2022-11-22T10:58:24.762Z,97.30
2022-11-22T10:59:28.695Z,97.30
2022-11-22T11:00:24.757Z,97.19
2022-11-22T11:01:24.811Z,97.19
2022-11-22T11:02:24.718Z,97.14
2022-11-22T11:03:24.720Z,97.14
2022-11-22T11:04:24.693Z,97.04
2022-11-22T11:05:24.684Z,97.04
2022-11-22T11:06:37.872Z,96.94
2022-11-22T11:07:25.705Z,96.94
2022-11-22T11:08:47.684Z,96.83
2022-11-22T11:10:33.819Z,96.73
2022-11-22T11:11:25.610Z,96.73
2022-11-22T11:12:24.612Z,96.62
2022-11-22T11:13:24.581Z,96.52
2022-11-22T11:14:24.574Z,96.52
2022-11-22T11:15:24.552Z,96.52
2022-11-22T11:16:24.541Z,96.52
2022-11-22T11:17:24.511Z,96.42
2022-11-22T11:18:24.541Z,96.31
2022-11-22T11:19:24.506Z,96.31
2022-11-22T11:20:24.491Z,96.31
2022-11-22T11:21:25.932Z,96.42
2022-11-22T11:22:50.333Z,96.42
2022-11-22T11:23:25.471Z,96.52
2022-11-22T11:24:24.444Z,96.52
2022-11-22T11:25:24.436Z,96.37
2022-11-22T11:26:24.432Z,96.37
2022-11-22T11:27:24.403Z,96.37
2022-11-22T11:28:24.393Z,96.37
2022-11-22T11:29:24.381Z,96.26
2022-11-22T11:30:24.392Z,96.26
2022-11-22T11:31:24.352Z,96.26
2022-11-22T11:32:24.351Z,96.16
2022-11-22T11:33:24.319Z,96.06
2022-11-22T11:34:24.343Z,96.06
2022-11-22T11:35:24.331Z,95.95
2022-11-22T11:36:24.350Z,95.95
2022-11-22T11:37:24.269Z,95.85
2022-11-22T11:38:24.272Z,95.85
2022-11-22T11:39:24.283Z,95.85
2022-11-22T11:40:24.250Z,95.81
2022-11-22T11:41:24.245Z,95.81
2022-11-22T11:42:24.225Z,95.81
2022-11-22T11:43:24.212Z,95.70
2022-11-22T11:44:24.193Z,95.70
2022-11-22T11:45:24.195Z,95.50
2022-11-22T11:46:24.242Z,95.50
2022-11-22T11:47:24.420Z,95.60
2022-11-22T11:48:24.140Z,95.60
2022-11-22T11:49:24.273Z,95.60
2022-11-22T11:50:25.039Z,95.60
2022-11-22T11:51:24.920Z,95.50
2022-11-22T11:52:24.090Z,95.39
2022-11-22T11:53:24.069Z,95.39
2022-11-22T11:54:24.059Z,95.39
2022-11-22T11:55:24.046Z,95.39
2022-11-22T11:56:24.060Z,95.50
2022-11-22T11:57:24.026Z,95.50
2022-11-22T11:58:24.022Z,95.50
2022-11-22T11:59:24.002Z,95.60
2022-11-22T12:00:23.991Z,95.70
2022-11-22T12:01:23.983Z,95.60
2022-11-22T12:02:24.040Z,95.70
2022-11-22T12:03:23.952Z,95.70
2022-11-22T12:04:23.944Z,95.70
2022-11-22T12:05:23.911Z,95.70
2022-11-22T12:06:23.911Z,95.60
2022-11-22T12:07:23.963Z,95.60
2022-11-22T12:08:23.885Z,95.60
2022-11-22T12:09:23.902Z,95.70
2022-11-22T12:10:23.871Z,95.60
2022-11-22T12:11:23.854Z,95.60
2022-11-22T12:12:23.865Z,95.60
2022-11-22T12:13:23.821Z,95.60
2022-11-22T12:14:23.812Z,95.60
2022-11-22T12:15:23.792Z,95.50
2022-11-22T12:16:23.805Z,95.50
2022-11-22T12:17:23.760Z,95.39
2022-11-22T12:18:23.770Z,95.39
2022-11-22T12:19:25.129Z,95.60
2022-11-22T12:20:23.745Z,95.70
2022-11-22T12:21:23.716Z,95.81
2022-11-22T12:22:48.287Z,95.91
2022-11-22T12:23:24.715Z,95.91
2022-11-22T12:25:32.573Z,95.91
2022-11-22T12:26:24.690Z,95.81
2022-11-22T12:27:23.664Z,95.81
2022-11-22T12:28:23.637Z,95.81
2022-11-22T12:29:23.612Z,95.91
2022-11-22T12:30:23.608Z,95.91
2022-11-22T12:31:23.580Z,96.01
2022-11-22T12:32:23.740Z,96.01
2022-11-22T12:33:23.575Z,96.01
2022-11-22T12:34:23.558Z,96.01
2022-11-22T12:35:23.539Z,95.91
2022-11-22T12:36:26.010Z,95.91
2022-11-22T12:37:24.512Z,96.01
2022-11-22T12:38:23.512Z,96.01
2022-11-22T12:39:23.510Z,96.01
2022-11-22T12:40:23.487Z,96.01
2022-11-22T12:41:23.462Z,96.01
2022-11-22T12:42:23.585Z,96.01
2022-11-22T12:43:23.470Z,96.12
2022-11-22T12:44:23.439Z,96.12
2022-11-22T12:45:23.414Z,96.12
2022-11-22T12:46:26.720Z,96.12
2022-11-22T12:47:23.380Z,95.97
2022-11-22T12:48:24.400Z,95.87
2022-11-22T12:49:23.370Z,95.87
2022-11-22T12:50:23.350Z,95.87
2022-11-22T12:51:23.329Z,95.97
2022-11-22T12:52:23.345Z,95.97
2022-11-22T12:53:23.323Z,96.08
2022-11-22T12:54:23.313Z,96.08
2022-11-22T12:55:23.302Z,95.97
2022-11-22T12:56:26.161Z,95.97